createdAt,value
2023-04-01T00:00:53.856Z,71.09
2023-04-01T00:03:23.680Z,71.12
2023-04-01T00:05:52.157Z,71.18
2023-04-01T00:08:20.359Z,71.27
2023-04-01T00:10:48.407Z,71.42
2023-04-01T00:13:16.664Z,71.48
2023-04-01T00:15:45.478Z,71.51
2023-04-01T00:18:14.362Z,71.58
2023-04-01T00:20:46.114Z,71.37
2023-04-01T00:23:14.672Z,71.57
2023-04-01T00:25:42.891Z,71.65
2023-04-01T00:28:11.172Z,71.65
2023-04-01T00:30:39.260Z,71.62
2023-04-01T00:33:07.303Z,71.77
2023-04-01T00:35:35.790Z,71.72
2023-04-01T00:38:04.197Z,71.75
2023-04-01T00:40:34.839Z,71.67
2023-04-01T00:43:10.718Z,71.69
2023-04-01T00:45:41.290Z,71.66
2023-04-01T00:48:13.795Z,71.70
2023-04-01T00:50:45.464Z,71.71
2023-04-01T00:53:14.745Z,71.74
2023-04-01T00:55:50.346Z,71.64
2023-04-01T00:58:22.232Z,71.77
2023-04-01T01:00:51.428Z,71.76
2023-04-01T01:03:20.488Z,71.89
2023-04-01T01:06:08.665Z,71.86
2023-04-01T01:08:50.307Z,71.85
2023-04-01T01:11:37.091Z,71.80
2023-04-01T01:14:22.740Z,71.69
2023-04-01T01:17:00.473Z,71.77
2023-04-01T01:19:52.836Z,71.68
2023-04-01T01:22:50.352Z,71.81
2023-04-01T01:25:41.644Z,71.73
2023-04-01T01:28:38.643Z,71.68
2023-04-01T01:31:16.497Z,71.72
2023-04-01T01:34:06.988Z,71.75
2023-04-01T01:36:38.164Z,71.76
2023-04-01T01:39:10.657Z,71.72
2023-04-01T01:41:43.076Z,71.71
2023-04-01T01:44:14.962Z,71.77
2023-04-01T01:46:44.659Z,71.76
2023-04-01T01:49:15.962Z,71.82
2023-04-01T01:51:43.996Z,71.86
2023-04-01T01:54:14.926Z,71.79
2023-04-01T01:56:45.910Z,71.82
2023-04-01T01:59:16.124Z,71.83
2023-04-01T02:01:50.245Z,71.81
2023-04-01T02:04:20.554Z,71.85
2023-04-01T02:06:54.221Z,71.88
2023-04-01T02:09:22.760Z,71.89
2023-04-01T02:11:56.042Z,71.98
2023-04-01T02:14:26.907Z,72.07
2023-04-01T02:16:58.760Z,71.87
2023-04-01T02:19:32.281Z,71.99
2023-04-01T02:22:04.741Z,72.01
2023-04-01T02:24:36.182Z,72.04
2023-04-01T02:27:05.123Z,72.25
2023-04-01T02:29:36.113Z,72.17
2023-04-01T02:32:09.906Z,72.17
2023-04-01T02:34:38.033Z,72.13
2023-04-01T02:37:06.017Z,71.99
2023-04-01T02:39:34.064Z,72.12
2023-04-01T02:42:02.138Z,72.19
2023-04-01T02:44:30.808Z,72.28
2023-04-01T02:47:00.548Z,72.42
2023-04-01T02:49:28.636Z,72.27
2023-04-01T02:51:56.577Z,72.18
2023-04-01T02:54:24.509Z,72.27
2023-04-01T02:56:52.802Z,72.34
2023-04-01T02:59:20.844Z,72.35
2023-04-01T03:01:48.826Z,72.42
2023-04-01T03:04:16.902Z,72.37
2023-04-01T03:06:45.014Z,72.39
2023-04-01T03:09:13.006Z,72.29
2023-04-01T03:11:41.370Z,72.36
2023-04-01T03:14:09.341Z,72.37
2023-04-01T03:16:37.393Z,72.43
2023-04-01T03:19:05.458Z,72.40
2023-04-01T03:21:33.671Z,72.33
2023-04-01T03:24:02.534Z,72.32
2023-04-01T03:26:30.800Z,72.35
2023-04-01T03:28:59.546Z,72.10
2023-04-01T03:31:27.642Z,72.24
2023-04-01T03:33:56.749Z,72.39
2023-04-01T03:36:24.814Z,72.35
2023-04-01T03:38:53.018Z,72.52
2023-04-01T03:41:23.979Z,72.49
2023-04-01T03:43:52.012Z,72.33
2023-04-01T03:46:20.651Z,72.51
2023-04-01T03:48:48.732Z,72.58
2023-04-01T03:51:16.647Z,72.60
2023-04-01T03:53:45.142Z,72.49
2023-04-01T03:56:13.812Z,72.52
2023-04-01T03:58:42.639Z,72.52
2023-04-01T04:01:20.439Z,72.50
2023-04-01T04:03:50.172Z,72.46
2023-04-01T04:06:19.832Z,72.40
2023-04-01T04:08:48.904Z,72.41
2023-04-01T04:11:17.694Z,72.46
2023-04-01T04:13:45.858Z,72.52
2023-04-01T04:16:14.446Z,72.64
2023-04-01T04:18:45.837Z,72.42
2023-04-01T04:21:15.340Z,72.45
2023-04-01T04:23:44.113Z,72.51
2023-04-01T04:26:14.353Z,72.56
2023-04-01T04:28:43.155Z,72.35
2023-04-01T04:31:11.282Z,72.47
2023-04-01T04:33:42.814Z,72.50
2023-04-01T04:36:11.023Z,72.57
2023-04-01T04:38:39.109Z,72.71
2023-04-01T04:41:12.139Z,72.65
2023-04-01T04:43:40.712Z,72.44
2023-04-01T04:46:08.973Z,72.55
2023-04-01T04:48:37.286Z,72.61
2023-04-01T04:51:05.763Z,72.83
2023-04-01T04:53:34.161Z,72.63
2023-04-01T04:56:02.326Z,72.62
2023-04-01T04:58:40.327Z,72.65
2023-04-01T05:01:11.325Z,72.66
2023-04-01T05:03:40.574Z,72.64
2023-04-01T05:06:11.095Z,72.53
2023-04-01T05:08:39.832Z,72.70
2023-04-01T05:11:13.848Z,72.70
2023-04-01T05:13:43.620Z,72.53
2023-04-01T05:16:12.586Z,72.49
2023-04-01T05:18:41.550Z,72.46
2023-04-01T05:21:11.564Z,72.44
2023-04-01T05:23:39.878Z,72.52
2023-04-01T05:26:10.601Z,72.39
2023-04-01T05:28:39.130Z,72.51
2023-04-01T05:31:08.518Z,72.23
2023-04-01T05:33:40.239Z,72.34
2023-04-01T05:36:11.136Z,72.40
2023-04-01T05:38:40.096Z,72.17
2023-04-01T05:41:10.268Z,72.28
2023-04-01T05:43:42.297Z,72.36
2023-04-01T05:46:29.503Z,72.49
2023-04-01T05:49:21.869Z,72.28
2023-04-01T05:51:51.836Z,72.22
2023-04-01T05:54:20.491Z,72.04
2023-04-01T05:56:49.091Z,72.20
2023-04-01T05:59:19.216Z,72.36
2023-04-01T06:01:47.913Z,73.13
2023-04-01T06:04:17.795Z,72.57
2023-04-01T06:06:46.670Z,72.37
2023-04-01T06:09:31.976Z,71.85
2023-04-01T06:12:17.719Z,72.28
2023-04-01T06:15:27.605Z,71.23
2023-04-01T06:18:54.086Z,69.87
2023-04-01T06:22:15.110Z,68.66
2023-04-01T06:25:13.892Z,67.89
2023-04-01T06:28:01.817Z,67.70
2023-04-01T06:30:41.156Z,67.44
2023-04-01T06:33:33.052Z,67.32
2023-04-01T06:48:08.386Z,66.65
2023-04-01T06:51:04.763Z,66.73
2023-04-01T06:54:17.108Z,66.95
2023-04-01T06:57:29.951Z,67.07
2023-04-01T07:00:07.825Z,66.93
2023-04-01T07:02:45.370Z,66.98
2023-04-01T07:05:17.768Z,67.53
2023-04-01T07:10:48.294Z,67.29
2023-04-01T07:13:51.151Z,66.83
2023-04-01T07:16:28.375Z,66.57
2023-04-01T07:19:04.346Z,66.71
2023-04-01T07:21:52.567Z,66.50
2023-04-01T07:24:34.604Z,66.48
2023-04-01T07:27:13.874Z,66.47
2023-04-01T07:29:45.902Z,66.33
2023-04-01T07:32:26.339Z,66.66
2023-04-01T07:35:11.596Z,66.25
2023-04-01T07:37:55.922Z,66.09
2023-04-01T07:40:39.903Z,65.70
2023-04-01T07:44:07.697Z,65.23
2023-04-01T07:51:10.671Z,65.29
2023-04-01T07:54:37.764Z,65.09
2023-04-01T08:01:59.088Z,65.35
2023-04-01T08:09:23.299Z,64.94
2023-04-01T08:17:05.146Z,64.96
2023-04-01T08:19:57.633Z,64.92
2023-04-01T08:23:20.600Z,65.12
2023-04-01T08:25:58.982Z,65.16
2023-04-01T08:28:38.574Z,65.24
2023-04-01T08:31:19.077Z,65.51
2023-04-01T08:33:56.029Z,65.99
2023-04-01T08:36:32.528Z,66.01
2023-04-01T08:39:45.525Z,65.91
2023-04-01T08:42:49.424Z,65.59
2023-04-01T08:45:57.241Z,65.24
2023-04-01T08:48:53.285Z,64.61
2023-04-01T08:51:44.507Z,64.32
2023-04-01T08:54:47.051Z,64.26
2023-04-01T08:57:34.300Z,63.43
2023-04-01T09:00:50.567Z,62.66
2023-04-01T09:04:01.006Z,62.48
2023-04-01T09:06:43.398Z,62.41
2023-04-01T09:09:46.536Z,62.49
2023-04-01T09:12:38.719Z,62.10
2023-04-01T09:15:28.249Z,61.85
2023-04-01T09:18:49.507Z,61.92
2023-04-01T09:21:53.485Z,62.10
2023-04-01T09:24:51.822Z,62.43
2023-04-01T09:27:32.860Z,62.65
2023-04-01T09:30:37.442Z,62.59
2023-04-01T09:33:48.891Z,62.60
2023-04-01T09:36:38.366Z,62.17
2023-04-01T09:39:37.847Z,62.24
2023-04-01T09:42:29.980Z,62.54
2023-04-01T09:45:26.052Z,62.54
2023-04-01T09:48:04.555Z,62.78
2023-04-01T09:50:44.539Z,62.80
2023-04-01T09:53:28.955Z,62.99
2023-04-01T09:56:42.901Z,62.98
2023-04-01T09:59:34.523Z,62.94
2023-04-01T10:03:06.086Z,63.07
2023-04-01T10:06:03.605Z,63.37
2023-04-01T10:08:52.891Z,63.31
2023-04-01T10:11:47.157Z,63.39
2023-04-01T10:14:44.541Z,63.36
2023-04-01T10:17:50.945Z,63.09
2023-04-01T10:20:56.681Z,62.89
2023-04-01T10:23:40.997Z,62.66
2023-04-01T10:26:55.093Z,62.73
2023-04-01T10:30:20.688Z,63.34
2023-04-01T10:33:40.495Z,63.54
2023-04-01T10:36:32.727Z,63.66
2023-04-01T10:39:35.106Z,63.01
2023-04-01T10:43:05.827Z,62.75
2023-04-01T10:46:18.908Z,62.78
2023-04-01T10:49:24.534Z,62.13
2023-04-01T10:52:20.540Z,61.58
2023-04-01T10:55:34.582Z,61.51
2023-04-01T10:58:51.158Z,61.40
2023-04-01T11:02:10.023Z,61.36
2023-04-01T11:05:36.441Z,60.71
2023-04-01T11:08:59.595Z,60.78
2023-04-01T11:11:59.905Z,60.55
2023-04-01T11:15:07.913Z,61.02
2023-04-01T11:18:10.901Z,61.38
2023-04-01T11:21:15.958Z,61.48
2023-04-01T11:24:13.366Z,61.64
2023-04-01T11:27:00.242Z,62.04
2023-04-01T11:30:08.033Z,62.22
2023-04-01T11:32:47.191Z,62.47
2023-04-01T11:35:36.290Z,62.66
2023-04-01T11:38:24.740Z,62.55
2023-04-01T11:41:01.638Z,62.63
2023-04-01T11:44:21.184Z,62.65
2023-04-01T11:48:01.320Z,62.72
2023-04-01T11:50:49.324Z,62.74
2023-04-01T11:53:37.470Z,62.72
2023-04-01T11:56:20.569Z,62.92
2023-04-01T11:59:27.579Z,62.84
2023-04-01T12:02:28.954Z,62.80
2023-04-01T12:05:10.219Z,62.41
2023-04-01T12:08:02.893Z,62.04
2023-04-01T12:10:40.900Z,61.88
2023-04-01T12:13:23.273Z,61.83
2023-04-01T12:16:09.938Z,61.61
2023-04-01T12:18:45.341Z,61.17
2023-04-01T12:21:28.197Z,60.93
2023-04-01T12:24:27.641Z,61.10
2023-04-01T12:27:14.603Z,60.98
2023-04-01T12:30:15.838Z,60.87
2023-04-01T12:32:57.544Z,60.49
2023-04-01T12:35:32.849Z,60.40
2023-04-01T12:38:23.751Z,60.41
2023-04-01T12:41:05.608Z,60.16
2023-04-01T12:44:09.252Z,59.94
2023-04-01T12:47:02.132Z,59.91
2023-04-01T12:49:47.926Z,59.95
2023-04-01T12:52:30.323Z,59.86
2023-04-01T12:55:25.534Z,59.70
2023-04-01T12:58:28.416Z,59.34
2023-04-01T13:01:35.193Z,58.92
2023-04-01T13:04:32.446Z,58.99
2023-04-01T13:07:21.559Z,58.98
2023-04-01T13:10:10.170Z,58.82
2023-04-01T13:13:01.213Z,58.84
2023-04-01T13:15:39.832Z,59.03
2023-04-01T13:18:30.424Z,59.14
2023-04-01T13:21:27.791Z,59.34
2023-04-01T13:24:14.185Z,59.58
2023-04-01T13:27:03.785Z,59.84
2023-04-01T13:29:38.413Z,60.22
2023-04-01T13:32:42.476Z,60.66
2023-04-01T13:35:26.143Z,61.24
2023-04-01T13:38:18.093Z,61.51
2023-04-01T13:41:03.699Z,61.86
2023-04-01T13:43:39.820Z,62.16
2023-04-01T13:46:26.014Z,62.43
2023-04-01T13:49:30.891Z,62.51
2023-04-01T13:52:16.002Z,62.45
2023-04-01T13:55:22.570Z,62.38
2023-04-01T13:58:20.800Z,62.51
2023-04-01T14:01:07.748Z,62.77
2023-04-01T14:03:52.767Z,62.82
2023-04-01T14:06:43.179Z,62.95
2023-04-01T14:10:01.265Z,63.07
2023-04-01T14:12:44.856Z,63.35
2023-04-01T14:15:40.079Z,63.65
2023-04-01T14:18:34.470Z,63.94
2023-04-01T14:21:32.100Z,64.21
2023-04-01T14:24:17.626Z,64.24
2023-04-01T14:27:16.004Z,64.27
2023-04-01T14:30:00.666Z,64.17
2023-04-01T14:32:45.964Z,64.09
2023-04-01T14:35:45.157Z,64.16
2023-04-01T14:38:52.634Z,64.38
2023-04-01T14:41:46.576Z,64.59
2023-04-01T14:44:47.931Z,64.67
2023-04-01T14:47:44.685Z,64.81
2023-04-01T14:50:19.373Z,65.03
2023-04-01T14:52:59.058Z,65.05
2023-04-01T14:55:45.319Z,65.09
2023-04-01T14:58:19.524Z,65.23
2023-04-01T15:01:02.922Z,65.23
2023-04-01T15:03:41.799Z,65.52
2023-04-01T15:06:47.998Z,65.71
2023-04-01T15:09:29.510Z,65.90
2023-04-01T15:12:11.764Z,66.09
2023-04-01T15:14:50.389Z,66.40
2023-04-01T15:17:36.078Z,66.29
2023-04-01T15:20:27.888Z,66.36
2023-04-01T15:23:23.232Z,66.54
2023-04-01T15:26:22.252Z,66.58
2023-04-01T15:29:28.457Z,66.70
2023-04-01T15:32:04.563Z,66.82
2023-04-01T15:34:46.246Z,66.63
2023-04-01T15:37:27.629Z,66.67
2023-04-01T15:40:15.505Z,66.78
2023-04-01T15:43:05.551Z,67.01
2023-04-01T15:45:52.036Z,67.09
2023-04-01T15:48:45.785Z,67.16
2023-04-01T15:51:36.156Z,67.14
2023-04-01T15:54:59.705Z,67.05
2023-04-01T15:57:38.078Z,67.17
2023-04-01T16:00:30.968Z,67.12
2023-04-01T16:03:29.467Z,67.08
2023-04-01T16:06:28.020Z,67.00
2023-04-01T16:09:24.291Z,67.27
2023-04-01T16:12:07.627Z,67.29
2023-04-01T16:14:53.809Z,67.25
2023-04-01T16:17:45.670Z,67.22
2023-04-01T16:20:43.407Z,67.40
2023-04-01T16:23:21.261Z,67.26
2023-04-01T16:26:01.776Z,67.12
2023-04-01T16:28:50.710Z,67.18
2023-04-01T16:31:35.842Z,67.08
2023-04-01T16:34:12.682Z,67.16
2023-04-01T16:36:49.091Z,67.37
2023-04-01T16:39:41.916Z,67.26
2023-04-01T16:45:23.567Z,67.37
2023-04-01T16:48:00.596Z,67.40
2023-04-01T16:50:47.779Z,67.53
2023-04-01T16:53:24.652Z,67.33
2023-04-01T16:56:06.530Z,67.43
2023-04-01T16:58:42.002Z,67.40
2023-04-01T17:01:18.551Z,67.45
2023-04-01T17:03:53.867Z,67.59
2023-04-01T17:06:33.918Z,67.62
2023-04-01T17:09:22.299Z,67.62
2023-04-01T17:12:07.828Z,67.71
2023-04-01T17:14:41.071Z,67.61
2023-04-01T17:17:35.436Z,67.68
2023-04-01T17:20:28.965Z,67.74
2023-04-01T17:23:07.920Z,67.66
2023-04-01T17:25:57.084Z,67.86
2023-04-01T17:28:42.692Z,67.78
2023-04-01T17:31:17.237Z,67.74
2023-04-01T17:34:18.487Z,67.68
2023-04-01T17:37:10.504Z,67.75
2023-04-01T17:40:01.704Z,67.73
2023-04-01T17:42:45.044Z,67.76
2023-04-01T17:45:27.015Z,67.60
2023-04-01T17:48:06.195Z,67.71
2023-04-01T17:50:55.006Z,67.77
2023-04-01T17:53:37.905Z,67.94
2023-04-01T17:56:24.190Z,67.86
2023-04-01T17:59:02.429Z,67.77
2023-04-01T18:01:47.878Z,67.80
2023-04-01T18:04:50.410Z,67.85
2023-04-01T18:08:05.348Z,67.75
2023-04-01T18:10:44.307Z,68.10
2023-04-01T18:13:53.816Z,67.94
2023-04-01T18:16:36.349Z,67.81
2023-04-01T18:19:20.630Z,67.99
2023-04-01T18:21:56.355Z,68.09
2023-04-01T18:24:35.731Z,68.06
2023-04-01T18:27:23.080Z,68.19
2023-04-01T18:29:59.122Z,67.99
2023-04-01T18:32:37.943Z,68.13
2023-04-01T18:35:29.039Z,68.23
2023-04-01T18:38:08.651Z,68.12
2023-04-01T18:40:44.769Z,68.27
2023-04-01T18:43:23.621Z,68.06
2023-04-01T18:46:04.130Z,68.37
2023-04-01T18:48:53.476Z,68.31
2023-04-01T18:51:40.660Z,68.31
2023-04-01T18:54:18.111Z,68.36
2023-04-01T18:56:49.933Z,68.26
2023-04-01T18:59:29.847Z,68.27
2023-04-01T19:02:12.067Z,68.34
2023-04-01T19:04:51.519Z,68.37
2023-04-01T19:07:44.497Z,68.27
2023-04-01T19:10:29.043Z,68.60
2023-04-01T19:13:11.821Z,68.44
2023-04-01T19:15:52.423Z,68.42
2023-04-01T19:19:04.850Z,68.68
2023-04-01T19:21:39.455Z,68.43
2023-04-01T19:24:38.413Z,68.57
2023-04-01T19:27:18.040Z,68.63
2023-04-01T19:30:04.675Z,68.56
2023-04-01T19:32:46.458Z,68.56
2023-04-01T19:35:27.189Z,68.80
2023-04-01T19:38:06.344Z,68.81
2023-04-01T19:40:47.444Z,68.78
2023-04-01T19:43:34.374Z,68.67
2023-04-01T19:46:13.091Z,68.82
2023-04-01T19:48:53.672Z,68.69
2023-04-01T19:51:33.847Z,68.68
2023-04-01T19:54:13.491Z,68.51
2023-04-01T19:56:49.881Z,68.73
2023-04-01T19:59:27.378Z,68.83
2023-04-01T20:02:03.941Z,69.08
2023-04-01T20:04:43.009Z,68.91
2023-04-01T20:07:21.370Z,69.01
2023-04-01T20:10:00.961Z,69.31
2023-04-01T20:12:46.046Z,69.32
2023-04-01T20:15:33.974Z,69.23
2023-04-01T20:18:14.654Z,69.35
2023-04-01T20:20:58.713Z,69.47
2023-04-01T20:23:41.625Z,69.29
2023-04-01T20:26:14.043Z,69.53
2023-04-01T20:29:00.123Z,69.35
2023-04-01T20:31:36.432Z,69.50
2023-04-01T20:34:25.553Z,69.60
2023-04-01T20:37:12.947Z,69.68
2023-04-01T20:40:09.059Z,69.29
2023-04-01T20:42:55.409Z,69.42
2023-04-01T20:45:36.619Z,69.32
2023-04-01T20:48:26.475Z,69.56
2023-04-01T20:51:01.552Z,69.36
2023-04-01T20:53:39.776Z,69.37
2023-04-01T20:56:26.676Z,69.48
2023-04-01T20:59:05.245Z,69.55
2023-04-01T21:01:46.147Z,69.70
2023-04-01T21:04:30.905Z,69.51
2023-04-01T21:07:30.448Z,69.61
2023-04-01T21:10:16.631Z,69.58
2023-04-01T21:12:54.898Z,69.76
2023-04-01T21:15:47.378Z,69.87
2023-04-01T21:18:37.723Z,69.68
2023-04-01T21:21:29.036Z,69.73
2023-04-01T21:24:29.103Z,69.82
2023-04-01T21:27:09.617Z,69.79
2023-04-01T21:29:58.823Z,69.85
2023-04-01T21:32:44.005Z,69.65
2023-04-01T21:35:28.150Z,69.74
2023-04-01T21:38:28.571Z,69.76
2023-04-01T21:41:29.669Z,69.49
2023-04-01T21:44:37.022Z,69.44
2023-04-01T21:47:52.622Z,69.50
2023-04-01T21:51:05.469Z,69.52
2023-04-01T21:54:24.184Z,69.70
2023-04-01T21:57:24.904Z,69.64
2023-04-01T22:00:17.514Z,69.66
2023-04-01T22:03:30.743Z,69.37
2023-04-01T22:06:24.056Z,69.78
2023-04-01T22:09:07.698Z,69.46
2023-04-01T22:11:55.305Z,69.56
2023-04-01T22:14:36.013Z,69.45
2023-04-01T22:17:20.149Z,69.22
2023-04-01T22:20:09.914Z,69.07
2023-04-01T22:23:02.017Z,69.18
2023-04-01T22:25:43.243Z,69.02
2023-04-01T22:28:21.758Z,68.99
2023-04-01T22:30:54.794Z,68.77
2023-04-01T22:33:35.423Z,68.89
2023-04-01T22:36:20.005Z,69.07
2023-04-01T22:39:04.435Z,69.08
2023-04-01T22:41:52.947Z,69.19
2023-04-01T22:44:37.961Z,69.11
2023-04-01T22:47:16.308Z,69.17
2023-04-01T22:49:51.704Z,68.98
2023-04-01T22:52:32.941Z,68.93
2023-04-01T22:55:10.444Z,69.05
2023-04-01T22:57:46.931Z,68.98
2023-04-01T23:00:23.536Z,68.99
2023-04-01T23:03:09.111Z,68.92
2023-04-01T23:05:48.233Z,68.82
2023-04-01T23:08:50.148Z,68.79
2023-04-01T23:11:26.871Z,68.72
2023-04-01T23:14:27.637Z,68.81
2023-04-01T23:17:04.532Z,68.65
2023-04-01T23:19:40.023Z,68.66
2023-04-01T23:22:23.325Z,68.76
2023-04-01T23:25:00.573Z,68.70
2023-04-01T23:27:38.260Z,68.64
2023-04-01T23:30:51.480Z,68.51
2023-04-01T23:33:29.459Z,68.52
2023-04-01T23:36:06.409Z,68.72
2023-04-01T23:38:40.555Z,68.59
2023-04-01T23:41:19.942Z,68.52
2023-04-01T23:43:57.690Z,68.40
2023-04-01T23:46:30.664Z,68.50
2023-04-01T23:49:02.819Z,68.35
2023-04-01T23:51:48.544Z,68.41
2023-04-01T23:54:19.680Z,68.52
2023-04-01T23:56:54.339Z,68.52
2023-04-01T23:59:30.072Z,68.46
